createdAt,value
2023-08-01T00:00:15.143Z,24.39
2023-08-01T00:01:15.365Z,24.33
2023-08-01T00:02:15.362Z,24.32
2023-08-01T00:03:15.572Z,24.26
2023-08-01T00:04:15.659Z,24.24
2023-08-01T00:05:15.799Z,24.29
2023-08-01T00:06:15.903Z,24.19
2023-08-01T00:07:16.011Z,24.21
2023-08-01T00:08:16.218Z,24.15
2023-08-01T00:09:16.284Z,24.10
2023-08-01T00:10:21.994Z,24.06
2023-08-01T00:11:16.626Z,24.18
2023-08-01T00:12:16.712Z,24.21
2023-08-01T00:13:16.876Z,24.33
2023-08-01T00:14:16.976Z,24.35
2023-08-01T00:15:17.130Z,24.39
2023-08-01T00:16:17.309Z,24.42
2023-08-01T00:17:20.982Z,24.52
2023-08-01T00:18:17.487Z,24.45
2023-08-01T00:19:17.691Z,24.50
2023-08-01T00:20:17.772Z,24.52
2023-08-01T00:21:17.993Z,24.60
2023-08-01T00:22:18.031Z,24.65
2023-08-01T00:23:18.192Z,24.58
2023-08-01T00:24:18.311Z,24.62
2023-08-01T00:25:18.463Z,24.76
2023-08-01T00:26:18.642Z,24.94
2023-08-01T00:27:18.731Z,24.94
2023-08-01T00:28:18.882Z,25.00
2023-08-01T00:29:18.975Z,25.04
2023-08-01T00:30:19.080Z,25.18
2023-08-01T00:31:19.268Z,25.55
2023-08-01T00:32:19.349Z,25.68
2023-08-01T00:33:19.448Z,25.89
2023-08-01T00:34:19.637Z,26.10
2023-08-01T00:35:19.756Z,26.33
2023-08-01T00:36:19.892Z,26.46
2023-08-01T00:37:20.039Z,26.88
2023-08-01T00:38:20.112Z,27.13
2023-08-01T00:39:20.275Z,27.44
2023-08-01T00:40:20.414Z,27.46
2023-08-01T00:41:20.632Z,27.75
2023-08-01T00:42:20.649Z,28.18
2023-08-01T00:43:20.772Z,28.41
2023-08-01T00:44:20.917Z,28.94
2023-08-01T00:45:21.045Z,29.14
2023-08-01T00:46:21.161Z,29.28
2023-08-01T00:47:21.267Z,29.59
2023-08-01T00:48:21.391Z,29.75
2023-08-01T00:49:21.511Z,29.86
2023-08-01T00:50:21.657Z,29.94
2023-08-01T00:51:21.837Z,30.12
2023-08-01T00:52:21.931Z,30.05
2023-08-01T00:53:22.091Z,30.29
2023-08-01T00:54:22.218Z,30.49
2023-08-01T00:55:22.440Z,30.44
2023-08-01T00:56:22.443Z,30.67
2023-08-01T00:57:22.670Z,30.84
2023-08-01T00:58:22.705Z,30.98
2023-08-01T00:59:22.895Z,31.17
2023-08-01T01:00:23.045Z,31.12
2023-08-01T01:01:23.158Z,31.10
2023-08-01T01:02:23.291Z,31.17
2023-08-01T01:03:23.424Z,31.05
2023-08-01T01:04:23.567Z,31.54
2023-08-01T01:05:23.653Z,31.30
2023-08-01T01:06:23.766Z,31.40
2023-08-01T01:07:23.898Z,31.42
2023-08-01T01:08:24.011Z,31.23
2023-08-01T01:09:29.187Z,31.03
2023-08-01T01:10:24.341Z,31.23
2023-08-01T01:11:24.362Z,31.10
2023-08-01T01:12:24.611Z,31.17
2023-08-01T01:13:24.656Z,31.05
2023-08-01T01:14:24.809Z,30.91
2023-08-01T01:15:24.948Z,31.07
2023-08-01T01:16:25.061Z,31.35
2023-08-01T01:17:25.188Z,31.26
2023-08-01T01:18:25.267Z,31.61
2023-08-01T01:19:25.393Z,31.68
2023-08-01T01:20:25.554Z,31.83
2023-08-01T01:21:25.680Z,32.19
2023-08-01T01:22:25.794Z,32.41
2023-08-01T01:23:25.955Z,32.44
2023-08-01T01:24:26.056Z,32.61
2023-08-01T01:25:26.224Z,32.90
2023-08-01T01:26:26.374Z,33.10
2023-08-01T01:27:26.478Z,33.10
2023-08-01T01:28:26.685Z,33.08
2023-08-01T01:29:26.741Z,33.13
2023-08-01T01:30:26.871Z,33.28
2023-08-01T01:31:27.150Z,33.44
2023-08-01T01:32:27.248Z,33.50
2023-08-01T01:33:27.341Z,33.60
2023-08-01T01:34:27.429Z,33.82
2023-08-01T01:35:27.548Z,33.90
2023-08-01T01:36:27.732Z,33.93
2023-08-01T01:37:27.832Z,33.98
2023-08-01T01:38:27.968Z,34.12
2023-08-01T01:39:28.089Z,34.26
2023-08-01T01:40:28.251Z,34.35
2023-08-01T01:41:28.433Z,34.43
2023-08-01T01:42:28.539Z,34.57
2023-08-01T01:43:28.601Z,34.57
2023-08-01T01:44:28.743Z,34.60
2023-08-01T01:45:28.896Z,34.77
2023-08-01T01:46:29.052Z,34.71
2023-08-01T01:47:29.172Z,34.80
2023-08-01T01:48:29.249Z,34.94
2023-08-01T01:49:29.397Z,34.89
2023-08-01T01:50:29.544Z,34.97
2023-08-01T01:51:29.701Z,35.06
2023-08-01T01:52:29.776Z,34.89
2023-08-01T01:53:29.916Z,34.86
2023-08-01T01:54:30.085Z,34.83
2023-08-01T01:55:30.239Z,35.03
2023-08-01T01:56:30.357Z,35.15
2023-08-01T01:57:30.524Z,35.06
2023-08-01T01:58:30.607Z,35.15
2023-08-01T01:59:30.697Z,35.21
2023-08-01T02:00:30.942Z,35.12
2023-08-01T02:01:30.970Z,35.06
2023-08-01T02:02:31.167Z,35.03
2023-08-01T02:03:31.255Z,34.63
2023-08-01T02:04:31.404Z,34.71
2023-08-01T02:05:31.500Z,34.54
2023-08-01T02:06:31.612Z,34.51
2023-08-01T02:07:31.760Z,34.43
2023-08-01T02:08:31.854Z,34.51
2023-08-01T02:09:32.086Z,34.26
2023-08-01T02:10:32.108Z,34.26
2023-08-01T02:11:32.226Z,34.29
2023-08-01T02:12:37.416Z,34.32
2023-08-01T02:13:34.679Z,34.21
2023-08-01T02:14:32.654Z,34.18
2023-08-01T02:15:32.712Z,34.26
2023-08-01T02:16:32.907Z,34.49
2023-08-01T02:17:33.063Z,34.63
2023-08-01T02:18:33.195Z,34.49
2023-08-01T02:19:33.306Z,34.12
2023-08-01T02:20:33.416Z,34.12
2023-08-01T02:21:33.523Z,33.96
2023-08-01T02:22:33.642Z,33.77
2023-08-01T02:23:33.826Z,33.69
2023-08-01T02:24:33.871Z,34.07
2023-08-01T02:25:34.009Z,33.96
2023-08-01T02:26:34.168Z,34.12
2023-08-01T02:27:34.302Z,33.93
2023-08-01T02:28:34.523Z,34.15
2023-08-01T02:29:34.588Z,34.32
2023-08-01T02:30:34.703Z,34.32
2023-08-01T02:31:34.860Z,34.29
2023-08-01T02:32:35.048Z,34.37
2023-08-01T02:33:35.216Z,34.18
2023-08-01T02:34:35.252Z,34.35
2023-08-01T02:35:35.348Z,34.49
2023-08-01T02:36:35.463Z,34.35
2023-08-01T02:37:35.579Z,34.35
2023-08-01T02:38:35.658Z,34.10
2023-08-01T02:39:35.877Z,34.32
2023-08-01T02:40:35.950Z,34.35
2023-08-01T02:41:36.082Z,34.18
2023-08-01T02:42:36.177Z,33.98
2023-08-01T02:43:36.336Z,33.88
2023-08-01T02:44:37.018Z,34.04
2023-08-01T02:45:36.694Z,34.01
2023-08-01T02:46:36.725Z,34.01
2023-08-01T02:47:36.900Z,33.88
2023-08-01T02:48:36.960Z,33.98
2023-08-01T02:49:37.149Z,34.18
2023-08-01T02:50:37.236Z,34.21
2023-08-01T02:51:37.390Z,33.98
2023-08-01T02:52:37.519Z,33.93
2023-08-01T02:53:37.673Z,33.88
2023-08-01T02:54:37.806Z,33.88
2023-08-01T02:55:37.891Z,33.88
2023-08-01T02:56:38.507Z,33.90
2023-08-01T02:57:38.233Z,33.88
2023-08-01T02:58:38.323Z,33.98
2023-08-01T02:59:38.464Z,34.01
2023-08-01T03:00:38.604Z,34.12
2023-08-01T03:01:38.765Z,34.26
2023-08-01T03:02:38.983Z,34.26
2023-08-01T03:03:39.044Z,34.18
2023-08-01T03:04:46.605Z,34.32
2023-08-01T03:05:40.220Z,34.26
2023-08-01T03:06:39.659Z,34.35
2023-08-01T03:07:39.547Z,34.69
2023-08-01T03:08:39.604Z,34.60
2023-08-01T03:09:39.737Z,34.77
2023-08-01T03:10:39.885Z,34.54
2023-08-01T03:11:45.053Z,34.43
2023-08-01T03:12:40.164Z,34.32
2023-08-01T03:13:40.276Z,34.43
2023-08-01T03:14:40.411Z,34.51
2023-08-01T03:15:40.576Z,34.35
2023-08-01T03:16:40.951Z,34.74
2023-08-01T03:17:40.867Z,34.63
2023-08-01T03:18:40.929Z,34.60
2023-08-01T03:19:41.056Z,34.83
2023-08-01T03:20:41.239Z,34.86
2023-08-01T03:21:41.300Z,34.94
2023-08-01T03:22:41.392Z,34.77
2023-08-01T03:23:41.619Z,34.74
2023-08-01T03:24:41.667Z,34.71
2023-08-01T03:25:41.791Z,34.74
2023-08-01T03:26:42.111Z,34.83
2023-08-01T03:27:42.082Z,34.89
2023-08-01T03:28:42.284Z,34.80
2023-08-01T03:29:42.336Z,34.77
2023-08-01T03:30:42.422Z,34.94
2023-08-01T03:31:42.609Z,34.71
2023-08-01T03:32:42.806Z,35.00
2023-08-01T03:33:42.813Z,34.80
2023-08-01T03:34:42.949Z,34.80
2023-08-01T03:35:43.034Z,34.77
2023-08-01T03:36:43.316Z,34.94
2023-08-01T03:37:43.354Z,34.89
2023-08-01T03:38:43.436Z,34.83
2023-08-01T03:39:43.662Z,35.09
2023-08-01T03:40:43.669Z,35.15
2023-08-01T03:41:43.812Z,35.18
2023-08-01T03:42:43.881Z,35.30
2023-08-01T03:43:44.003Z,35.21
2023-08-01T03:44:44.148Z,35.38
2023-08-01T03:45:44.366Z,35.38
2023-08-01T03:46:44.388Z,35.42
2023-08-01T03:47:44.570Z,35.30
2023-08-01T03:48:44.693Z,35.27
2023-08-01T03:49:44.729Z,35.30
2023-08-01T03:50:44.914Z,35.15
2023-08-01T03:51:45.022Z,35.15
2023-08-01T03:52:45.142Z,35.18
2023-08-01T03:53:47.276Z,34.63
2023-08-01T03:54:45.405Z,34.77
2023-08-01T03:55:45.502Z,34.80
2023-08-01T03:56:45.689Z,34.97
2023-08-01T03:57:45.789Z,35.00
2023-08-01T03:58:45.936Z,35.21
2023-08-01T03:59:46.053Z,35.27
2023-08-01T04:00:46.232Z,35.33
2023-08-01T04:01:46.376Z,35.18
2023-08-01T04:02:48.710Z,35.24
2023-08-01T04:03:46.621Z,35.35
2023-08-01T04:04:46.695Z,35.15
2023-08-01T04:05:46.849Z,35.18
2023-08-01T04:06:47.012Z,35.30
2023-08-01T04:07:47.140Z,35.18
2023-08-01T04:08:47.289Z,35.24
2023-08-01T04:09:47.403Z,34.83
2023-08-01T04:10:47.509Z,34.54
2023-08-01T04:11:52.674Z,34.60
2023-08-01T04:12:47.740Z,34.60
2023-08-01T04:13:47.838Z,34.26
2023-08-01T04:14:47.988Z,34.49
2023-08-01T04:15:48.126Z,34.49
2023-08-01T04:16:48.215Z,34.63
2023-08-01T04:17:48.404Z,35.09
2023-08-01T04:18:48.488Z,34.97
2023-08-01T04:19:48.598Z,34.86
2023-08-01T04:20:48.738Z,34.71
2023-08-01T04:21:48.885Z,34.94
2023-08-01T04:22:49.040Z,35.21
2023-08-01T04:23:49.141Z,35.24
2023-08-01T04:24:49.283Z,35.24
2023-08-01T04:25:49.429Z,34.86
2023-08-01T04:26:49.568Z,34.69
2023-08-01T04:27:49.740Z,34.77
2023-08-01T04:28:49.910Z,35.24
2023-08-01T04:29:49.968Z,35.33
2023-08-01T04:30:50.122Z,34.92
2023-08-01T04:31:50.254Z,34.80
2023-08-01T04:32:50.952Z,35.00
2023-08-01T04:33:50.559Z,34.32
2023-08-01T04:34:50.667Z,34.40
2023-08-01T04:35:50.771Z,34.66
2023-08-01T04:36:50.981Z,34.83
2023-08-01T04:37:51.040Z,34.80
2023-08-01T04:38:51.199Z,35.00
2023-08-01T04:39:51.313Z,35.00
2023-08-01T04:40:51.461Z,35.12
2023-08-01T04:41:51.628Z,34.94
2023-08-01T04:42:51.684Z,35.15
2023-08-01T04:43:51.830Z,35.30
2023-08-01T04:44:52.001Z,35.15
2023-08-01T04:45:52.097Z,34.92
2023-08-01T04:46:52.242Z,34.89
2023-08-01T04:47:52.403Z,34.83
2023-08-01T04:48:52.501Z,34.80
2023-08-01T04:49:52.601Z,34.49
2023-08-01T04:50:52.720Z,34.54
2023-08-01T04:51:52.834Z,34.40
2023-08-01T04:52:53.063Z,34.35
2023-08-01T04:53:53.117Z,34.40
2023-08-01T04:54:53.256Z,34.21
2023-08-01T04:55:53.336Z,34.69
2023-08-01T04:56:53.496Z,34.07
2023-08-01T04:57:53.619Z,33.88
2023-08-01T04:58:53.815Z,33.34
2023-08-01T04:59:53.902Z,33.23
2023-08-01T05:00:54.042Z,33.28
2023-08-01T05:01:54.141Z,33.05
2023-08-01T05:02:54.298Z,32.95
2023-08-01T05:03:54.435Z,33.10
2023-08-01T05:04:54.547Z,33.23
2023-08-01T05:05:54.649Z,33.28
2023-08-01T05:06:54.838Z,33.23
2023-08-01T05:07:54.958Z,33.47
2023-08-01T05:08:55.078Z,33.39
2023-08-01T05:10:00.310Z,33.50
2023-08-01T05:10:55.328Z,33.74
2023-08-01T05:11:55.472Z,33.77
2023-08-01T05:12:55.618Z,34.10
2023-08-01T05:13:55.726Z,34.26
2023-08-01T05:14:55.887Z,34.12
2023-08-01T05:15:56.027Z,34.10
2023-08-01T05:16:56.169Z,34.26
2023-08-01T05:17:56.332Z,34.21
2023-08-01T05:18:56.370Z,34.32
2023-08-01T05:19:56.517Z,34.35
2023-08-01T05:20:56.683Z,34.18
2023-08-01T05:21:56.765Z,34.32
2023-08-01T05:22:56.919Z,34.35
2023-08-01T05:23:57.038Z,34.21
2023-08-01T05:24:57.166Z,34.10
2023-08-01T05:25:57.311Z,34.07
2023-08-01T05:26:57.447Z,34.32
2023-08-01T05:27:57.623Z,33.98
2023-08-01T05:28:57.709Z,33.90
2023-08-01T05:29:57.850Z,34.12
2023-08-01T05:30:58.047Z,33.47
2023-08-01T05:31:58.128Z,33.05
2023-08-01T05:32:58.301Z,32.97
2023-08-01T05:33:58.410Z,33.00
2023-08-01T05:34:58.526Z,33.10
2023-08-01T05:35:58.680Z,33.13
2023-08-01T05:36:58.834Z,32.87
2023-08-01T05:37:58.975Z,32.67
2023-08-01T05:38:59.100Z,32.77
2023-08-01T05:39:59.207Z,32.84
2023-08-01T05:40:59.347Z,33.34
2023-08-01T05:41:59.485Z,33.28
2023-08-01T05:42:59.694Z,32.97
2023-08-01T05:43:59.767Z,33.00
2023-08-01T05:44:59.895Z,33.26
2023-08-01T05:46:00.061Z,33.55
2023-08-01T05:47:00.254Z,33.88
2023-08-01T05:48:00.408Z,33.79
2023-08-01T05:49:00.455Z,33.55
2023-08-01T05:50:00.613Z,33.13
2023-08-01T05:51:00.665Z,33.13
2023-08-01T05:52:00.818Z,33.44
2023-08-01T05:53:00.938Z,33.28
2023-08-01T05:54:01.072Z,33.08
2023-08-01T05:55:01.191Z,33.00
2023-08-01T05:56:01.363Z,33.13
2023-08-01T05:57:01.977Z,32.84
2023-08-01T05:58:01.595Z,32.87
2023-08-01T05:59:01.730Z,32.79
2023-08-01T06:00:01.957Z,32.56
2023-08-01T06:01:02.002Z,32.61
2023-08-01T06:02:02.289Z,32.29
2023-08-01T06:03:02.348Z,32.61
2023-08-01T06:04:02.409Z,32.97
2023-08-01T06:05:02.483Z,32.95
2023-08-01T06:06:02.624Z,33.15
2023-08-01T06:07:02.768Z,33.15
2023-08-01T06:08:02.940Z,33.23
2023-08-01T06:09:03.037Z,33.52
2023-08-01T06:10:03.181Z,33.50
2023-08-01T06:11:03.325Z,33.15
2023-08-01T06:12:03.473Z,33.15
2023-08-01T06:13:09.164Z,33.52
2023-08-01T06:14:03.756Z,34.01
2023-08-01T06:15:03.893Z,34.12
2023-08-01T06:16:04.108Z,33.90
2023-08-01T06:17:04.184Z,34.21
2023-08-01T06:18:04.367Z,34.40
2023-08-01T06:19:04.426Z,34.35
2023-08-01T06:20:04.580Z,34.37
2023-08-01T06:21:04.729Z,34.54
2023-08-01T06:22:04.874Z,34.29
2023-08-01T06:23:05.551Z,33.90
2023-08-01T06:24:05.136Z,34.35
2023-08-01T06:25:05.298Z,34.89
2023-08-01T06:26:05.411Z,34.26
2023-08-01T06:27:05.543Z,33.98
2023-08-01T06:28:05.713Z,33.93
2023-08-01T06:29:06.369Z,33.18
2023-08-01T06:30:05.959Z,33.10
2023-08-01T06:31:06.103Z,33.55
2023-08-01T06:32:06.286Z,33.66
2023-08-01T06:33:06.484Z,33.44
2023-08-01T06:34:06.527Z,33.60
2023-08-01T06:35:06.605Z,33.98
2023-08-01T06:36:06.766Z,33.79
2023-08-01T06:37:06.892Z,34.43
2023-08-01T06:38:07.026Z,34.43
2023-08-01T06:39:07.228Z,34.51
2023-08-01T06:40:07.311Z,34.74
2023-08-01T06:41:07.450Z,35.35
2023-08-01T06:42:07.603Z,35.42
2023-08-01T06:43:07.734Z,36.84
2023-08-01T06:44:07.909Z,37.50
2023-08-01T06:45:08.032Z,37.73
2023-08-01T06:46:08.198Z,37.73
2023-08-01T06:47:08.275Z,37.43
2023-08-01T06:48:08.422Z,37.43
2023-08-01T06:49:08.626Z,38.28
2023-08-01T06:50:08.715Z,37.83
2023-08-01T06:51:08.851Z,39.28
2023-08-01T06:52:09.000Z,43.28
2023-08-01T06:53:09.140Z,45.29
2023-08-01T06:54:09.310Z,47.22
2023-08-01T06:55:09.449Z,49.33
2023-08-01T06:56:09.565Z,48.70
2023-08-01T06:57:09.680Z,45.83
2023-08-01T06:58:09.829Z,45.53
2023-08-01T06:59:09.957Z,45.44
2023-08-01T07:00:10.166Z,46.39
2023-08-01T07:01:10.265Z,48.72
2023-08-01T07:02:10.350Z,49.04
2023-08-01T07:03:11.533Z,47.11
2023-08-01T07:04:10.614Z,46.75
2023-08-01T07:05:10.783Z,44.10
2023-08-01T07:06:10.910Z,44.10
2023-08-01T07:07:11.066Z,46.34
2023-08-01T07:08:11.156Z,46.34
2023-08-01T07:09:11.297Z,46.54
2023-08-01T07:10:11.435Z,45.78
2023-08-01T07:11:17.100Z,46.08
2023-08-01T07:12:11.725Z,47.11
2023-08-01T07:13:11.829Z,49.91
2023-08-01T07:14:11.957Z,52.63
2023-08-01T07:15:12.138Z,57.10
2023-08-01T07:16:12.311Z,61.66
2023-08-01T07:17:12.401Z,65.71
2023-08-01T07:18:12.550Z,67.83
2023-08-01T07:19:12.961Z,66.97
2023-08-01T07:20:12.775Z,66.07
2023-08-01T07:21:13.452Z,62.30
2023-08-01T07:22:13.060Z,65.46
2023-08-01T07:23:13.155Z,67.02
2023-08-01T07:24:13.294Z,62.63
2023-08-01T07:25:13.442Z,64.11
2023-08-01T07:26:13.615Z,66.33
2023-08-01T07:27:14.669Z,67.72
2023-08-01T07:28:13.875Z,71.22
2023-08-01T07:29:13.973Z,72.96
2023-08-01T07:30:14.122Z,73.98
2023-08-01T07:31:14.326Z,74.05
2023-08-01T07:32:14.395Z,73.15
2023-08-01T07:33:15.081Z,70.33
2023-08-01T07:34:14.667Z,70.68
2023-08-01T07:35:14.749Z,68.83
2023-08-01T07:36:14.901Z,69.81
2023-08-01T07:37:15.033Z,73.92
2023-08-01T07:38:15.198Z,72.14
2023-08-01T07:39:15.306Z,73.27
2023-08-01T07:40:15.441Z,73.15
2023-08-01T07:41:15.579Z,72.83
2023-08-01T07:42:15.673Z,69.29
2023-08-01T07:43:15.831Z,71.22
2023-08-01T07:44:15.960Z,72.96
2023-08-01T07:45:16.048Z,70.51
2023-08-01T07:46:16.226Z,70.45
2023-08-01T07:47:16.326Z,68.05
2023-08-01T07:48:16.484Z,70.98
2023-08-01T07:49:16.593Z,70.04
2023-08-01T07:50:16.731Z,69.98
2023-08-01T07:51:16.868Z,73.15
2023-08-01T07:52:17.004Z,73.40
2023-08-01T07:53:17.165Z,69.34
2023-08-01T07:54:17.270Z,69.17
2023-08-01T07:55:17.394Z,71.65
2023-08-01T07:56:18.501Z,74.11
2023-08-01T07:57:17.687Z,75.78
2023-08-01T07:58:17.866Z,76.75
2023-08-01T07:59:17.964Z,76.33
2023-08-01T08:00:18.168Z,79.06
2023-08-01T08:01:18.382Z,80.19
2023-08-01T08:02:18.359Z,81.04
2023-08-01T08:03:18.557Z,81.04
2023-08-01T08:04:18.625Z,76.82
2023-08-01T08:05:18.778Z,73.02
2023-08-01T08:06:18.913Z,67.94
2023-08-01T08:07:19.045Z,71.16
2023-08-01T08:08:19.155Z,71.47
2023-08-01T08:09:24.304Z,71.96
2023-08-01T08:10:19.394Z,75.11
2023-08-01T08:11:20.002Z,77.39
2023-08-01T08:12:19.598Z,75.58
2023-08-01T08:13:19.778Z,71.77
2023-08-01T08:14:19.866Z,74.44
2023-08-01T08:15:20.015Z,74.71
2023-08-01T08:16:20.200Z,78.25
2023-08-01T08:17:20.346Z,77.10
2023-08-01T08:18:20.706Z,76.82
2023-08-01T08:19:20.553Z,75.51
2023-08-01T08:20:20.747Z,75.99
2023-08-01T08:21:20.831Z,75.04
2023-08-01T08:22:20.975Z,74.24
2023-08-01T08:23:21.137Z,76.47
2023-08-01T08:24:21.223Z,74.18
2023-08-01T08:25:21.413Z,72.64
2023-08-01T08:26:21.506Z,75.78
2023-08-01T08:27:21.641Z,76.68
2023-08-01T08:28:21.805Z,77.82
2023-08-01T08:29:21.906Z,75.65
2023-08-01T08:30:22.025Z,79.66
2023-08-01T08:31:22.225Z,81.20
2023-08-01T08:32:22.281Z,81.36
2023-08-01T08:33:22.410Z,81.12
2023-08-01T08:34:22.507Z,77.18
2023-08-01T08:35:22.682Z,78.47
2023-08-01T08:36:22.761Z,79.44
2023-08-01T08:37:22.870Z,79.66
2023-08-01T08:38:22.981Z,80.73
2023-08-01T08:39:23.126Z,82.88
2023-08-01T08:40:23.309Z,84.72
2023-08-01T08:41:23.398Z,83.79
2023-08-01T08:42:23.533Z,84.89
2023-08-01T08:43:23.672Z,88.56
2023-08-01T08:44:23.802Z,90.85
2023-08-01T08:45:23.962Z,93.17
2023-08-01T08:46:24.089Z,94.40
2023-08-01T08:47:24.193Z,93.87
2023-08-01T08:48:24.271Z,96.13
2023-08-01T08:49:24.408Z,97.63
2023-08-01T08:50:24.549Z,95.53
2023-08-01T08:51:24.734Z,95.28
2023-08-01T08:52:24.855Z,93.90
2023-08-01T08:53:24.957Z,95.50
2023-08-01T08:54:25.105Z,94.32
2023-08-01T08:55:25.251Z,98.26
2023-08-01T08:56:25.476Z,101.89
2023-08-01T08:57:25.508Z,101.65
2023-08-01T08:58:25.655Z,104.04
2023-08-01T08:59:25.803Z,103.59
2023-08-01T09:00:25.978Z,100.31
2023-08-01T09:01:26.069Z,98.61
2023-08-01T09:02:26.211Z,99.36
2023-08-01T09:03:26.352Z,103.40
2023-08-01T09:04:26.515Z,107.84
2023-08-01T09:05:26.728Z,112.61
2023-08-01T09:06:26.784Z,112.53
2023-08-01T09:07:26.934Z,116.19
2023-08-01T09:08:27.016Z,113.98
2023-08-01T09:09:27.141Z,118.65
2023-08-01T09:10:27.384Z,125.28
2023-08-01T09:11:37.915Z,126.22
2023-08-01T09:12:27.533Z,130.23
2023-08-01T09:13:27.691Z,128.05
2023-08-01T09:14:27.806Z,126.31
2023-08-01T09:15:27.898Z,124.72
2023-08-01T09:16:28.036Z,122.10
2023-08-01T09:17:28.152Z,125.47
2023-08-01T09:18:28.329Z,128.93
2023-08-01T09:19:28.341Z,133.64
2023-08-01T09:20:28.437Z,136.46
2023-08-01T09:21:28.550Z,142.24
2023-08-01T09:22:28.651Z,146.96
2023-08-01T09:23:28.786Z,145.44
2023-08-01T09:24:28.937Z,148.65
2023-08-01T09:25:30.035Z,155.53
2023-08-01T09:26:29.185Z,154.38
2023-08-01T09:27:29.291Z,156.98
2023-08-01T09:28:29.487Z,158.76
2023-08-01T09:29:29.551Z,150.65
2023-08-01T09:30:29.682Z,153.26
2023-08-01T09:31:31.680Z,155.53
2023-08-01T09:32:29.889Z,155.24
2023-08-01T09:33:29.967Z,154.81
2023-08-01T09:34:30.112Z,154.24
2023-08-01T09:35:30.196Z,155.10
2023-08-01T09:36:30.299Z,152.98
2023-08-01T09:37:30.393Z,152.43
2023-08-01T09:38:30.534Z,154.38
2023-08-01T09:39:30.716Z,155.38
2023-08-01T09:40:30.757Z,154.24
2023-08-01T09:41:30.882Z,140.10
2023-08-01T09:42:30.978Z,140.81
2023-08-01T09:43:31.127Z,146.07
2023-08-01T09:44:31.611Z,143.21
2023-08-01T09:45:31.411Z,136.69
2023-08-01T09:46:31.578Z,143.70
2023-08-01T09:47:31.654Z,147.35
2023-08-01T09:48:31.767Z,146.96
2023-08-01T09:49:31.886Z,152.01
2023-08-01T09:50:31.980Z,156.69
2023-08-01T09:51:32.126Z,162.75
2023-08-01T09:52:33.135Z,172.79
2023-08-01T09:53:32.288Z,177.53
2023-08-01T09:54:32.374Z,181.56
2023-08-01T09:55:32.478Z,183.14
2023-08-01T09:56:32.655Z,183.54
2023-08-01T09:57:32.759Z,188.41
2023-08-01T09:58:32.904Z,191.69
2023-08-01T09:59:33.004Z,194.62
2023-08-01T10:00:33.132Z,198.95
2023-08-01T10:01:33.301Z,199.80
2023-08-01T10:02:33.508Z,206.93
2023-08-01T10:03:33.569Z,213.34
2023-08-01T10:04:33.632Z,215.98
2023-08-01T10:05:33.731Z,217.12
2023-08-01T10:06:33.857Z,212.24
2023-08-01T10:07:33.969Z,202.61
2023-08-01T10:08:34.103Z,211.02
2023-08-01T10:09:34.221Z,218.26
2023-08-01T10:10:34.322Z,218.26
2023-08-01T10:11:34.446Z,221.18
2023-08-01T10:12:39.634Z,223.88
2023-08-01T10:13:34.706Z,228.52
2023-08-01T10:14:34.821Z,240.15
2023-08-01T10:15:35.037Z,238.24
2023-08-01T10:16:36.029Z,250.52
2023-08-01T10:17:35.283Z,255.95
2023-08-01T10:18:35.255Z,252.05
2023-08-01T10:19:35.359Z,249.20
2023-08-01T10:20:35.482Z,245.86
2023-08-01T10:21:35.606Z,258.76
2023-08-01T10:22:35.740Z,275.58
2023-08-01T10:23:35.840Z,292.92
2023-08-01T10:24:35.991Z,299.55
2023-08-01T10:25:36.143Z,298.20
2023-08-01T10:26:36.277Z,298.47
2023-08-01T10:27:36.397Z,295.54
2023-08-01T10:28:36.498Z,275.35
2023-08-01T10:29:36.639Z,252.24
2023-08-01T10:30:36.740Z,242.08
2023-08-01T10:31:36.938Z,240.67
2023-08-01T10:32:37.051Z,228.68
2023-08-01T10:33:37.122Z,225.41
2023-08-01T10:34:37.237Z,226.65
2023-08-01T10:35:37.392Z,218.41
2023-08-01T10:36:37.452Z,222.68
2023-08-01T10:37:37.656Z,228.37
2023-08-01T10:38:37.673Z,224.79
2023-08-01T10:39:37.788Z,219.42
2023-08-01T10:40:37.961Z,221.48
2023-08-01T10:41:38.037Z,208.36
2023-08-01T10:42:38.122Z,213.61
2023-08-01T10:43:38.224Z,217.83
2023-08-01T10:44:38.322Z,222.38
2023-08-01T10:45:38.475Z,224.49
2023-08-01T10:46:38.560Z,225.87
2023-08-01T10:47:38.699Z,225.26
2023-08-01T10:48:38.884Z,215.42
2023-08-01T10:49:38.944Z,213.06
2023-08-01T10:50:39.013Z,217.12
2023-08-01T10:51:39.337Z,219.57
2023-08-01T10:52:39.259Z,222.68
2023-08-01T10:53:42.031Z,226.18
2023-08-01T10:54:39.520Z,233.37
2023-08-01T10:55:39.691Z,229.96
2023-08-01T10:56:39.975Z,224.19
2023-08-01T10:57:39.906Z,215.14
2023-08-01T10:58:40.075Z,208.10
2023-08-01T10:59:40.184Z,203.61
2023-08-01T11:00:40.304Z,194.16
2023-08-01T11:01:40.490Z,187.77
2023-08-01T11:02:40.581Z,180.39
2023-08-01T11:03:40.797Z,171.38
2023-08-01T11:04:40.808Z,166.29
2023-08-01T11:05:40.939Z,156.54
2023-08-01T11:06:41.377Z,154.38
2023-08-01T11:07:41.183Z,146.96
2023-08-01T11:08:41.311Z,136.69
2023-08-01T11:09:41.404Z,132.17
2023-08-01T11:10:47.063Z,142.12
2023-08-01T11:11:41.710Z,148.65
2023-08-01T11:12:41.871Z,154.95
2023-08-01T11:13:41.948Z,161.66
2023-08-01T11:14:42.069Z,171.21
2023-08-01T11:15:42.241Z,169.48
2023-08-01T11:16:42.447Z,168.97
2023-08-01T11:17:42.471Z,185.36
2023-08-01T11:18:42.514Z,188.30
2023-08-01T11:19:42.622Z,194.96
2023-08-01T11:20:42.847Z,205.89
2023-08-01T11:21:42.843Z,214.02
2023-08-01T11:22:43.021Z,215.28
2023-08-01T11:23:43.115Z,223.43
2023-08-01T11:24:43.221Z,230.12
2023-08-01T11:25:43.388Z,240.15
2023-08-01T11:26:43.493Z,238.93
2023-08-01T11:27:43.601Z,254.38
2023-08-01T11:28:44.969Z,267.98
2023-08-01T11:29:43.786Z,275.12
2023-08-01T11:30:43.899Z,275.81
2023-08-01T11:31:44.089Z,264.55
2023-08-01T11:32:44.165Z,188.62
2023-08-01T11:33:44.266Z,205.77
2023-08-01T11:34:45.053Z,209.15
2023-08-01T11:35:44.485Z,193.71
2023-08-01T11:36:44.623Z,185.45
2023-08-01T11:37:44.713Z,182.74
2023-08-01T11:38:44.863Z,171.38
2023-08-01T11:39:44.947Z,152.43
2023-08-01T11:40:45.081Z,134.29
2023-08-01T11:41:45.229Z,123.53
2023-08-01T11:42:45.316Z,115.87
2023-08-01T11:43:45.439Z,113.21
2023-08-01T11:44:45.594Z,108.75
2023-08-01T11:45:46.513Z,102.70
2023-08-01T11:46:45.809Z,101.10
2023-08-01T11:47:45.870Z,96.18
2023-08-01T11:48:45.950Z,94.40
2023-08-01T11:49:46.112Z,97.52
2023-08-01T11:50:46.219Z,97.01
2023-08-01T11:51:46.339Z,96.68
2023-08-01T11:52:46.505Z,96.51
2023-08-01T11:53:46.633Z,102.64
2023-08-01T11:54:46.737Z,104.62
2023-08-01T11:55:46.828Z,109.39
2023-08-01T11:56:46.934Z,110.10
2023-08-01T11:57:47.023Z,111.71
2023-08-01T11:58:47.197Z,115.63
2023-08-01T11:59:47.309Z,114.84
2023-08-01T12:00:47.388Z,115.95
2023-08-01T12:01:47.447Z,119.83
2023-08-01T12:02:47.629Z,123.17
2023-08-01T12:03:47.730Z,124.54
2023-08-01T12:04:47.853Z,133.96
2023-08-01T12:05:47.985Z,136.24
2023-08-01T12:06:48.071Z,142.36
2023-08-01T12:07:48.181Z,139.06
2023-08-01T12:08:48.302Z,147.22
2023-08-01T12:09:53.976Z,156.25
2023-08-01T12:10:48.560Z,164.18
2023-08-01T12:11:48.696Z,169.65
2023-08-01T12:12:48.835Z,169.82
2023-08-01T12:13:48.956Z,166.62
2023-08-01T12:14:49.020Z,171.38
2023-08-01T12:15:49.154Z,177.35
2023-08-01T12:16:49.282Z,183.94
2023-08-01T12:17:49.423Z,191.35
2023-08-01T12:18:59.835Z,190.69
2023-08-01T12:19:50.664Z,192.80
2023-08-01T12:20:49.831Z,188.52
2023-08-01T12:21:49.902Z,182.15
2023-08-01T12:22:50.024Z,190.58
2023-08-01T12:23:50.124Z,196.24
2023-08-01T12:24:50.277Z,194.62
2023-08-01T12:25:50.417Z,202.74
2023-08-01T12:26:50.510Z,207.84
2023-08-01T12:27:50.658Z,213.61
2023-08-01T12:28:50.773Z,217.26
2023-08-01T12:29:50.862Z,215.28
2023-08-01T12:30:51.009Z,218.55
2023-08-01T12:31:51.164Z,222.23
2023-08-01T12:32:51.308Z,229.32
2023-08-01T12:33:51.459Z,227.74
2023-08-01T12:34:51.548Z,223.43
2023-08-01T12:35:51.656Z,226.65
2023-08-01T12:36:51.780Z,228.21
2023-08-01T12:37:51.874Z,227.74
2023-08-01T12:38:52.023Z,232.87
2023-08-01T12:39:52.130Z,235.53
2023-08-01T12:40:52.222Z,237.73
2023-08-01T12:41:52.339Z,234.36
2023-08-01T12:42:52.422Z,238.93
2023-08-01T12:43:52.546Z,233.20
2023-08-01T12:44:52.691Z,237.90
2023-08-01T12:45:54.198Z,241.90
2023-08-01T12:46:53.047Z,252.62